createdAt,value
2023-04-10T00:01:46.305Z,8.49
2023-04-10T00:04:13.160Z,8.53
2023-04-10T00:06:39.845Z,8.23
2023-04-10T00:09:06.442Z,8.20
2023-04-10T00:11:33.171Z,8.45
2023-04-10T00:14:00.274Z,8.66
2023-04-10T00:16:26.941Z,8.27
2023-04-10T00:18:53.593Z,8.17
2023-04-10T00:21:20.226Z,8.09
2023-04-10T00:23:46.840Z,7.95
2023-04-10T00:26:13.455Z,7.78
2023-04-10T00:28:40.073Z,7.81
2023-04-10T00:31:06.744Z,7.65
2023-04-10T00:33:33.355Z,7.72
2023-04-10T00:36:00.060Z,7.49
2023-04-10T00:38:26.741Z,7.58
2023-04-10T00:40:53.321Z,7.49
2023-04-10T00:43:20.078Z,7.65
2023-04-10T00:45:47.408Z,8.40
2023-04-10T00:48:15.822Z,8.65
2023-04-10T00:50:42.690Z,9.09
2023-04-10T00:53:09.284Z,9.15
2023-04-10T00:55:36.195Z,9.55
2023-04-10T00:58:02.979Z,9.33
2023-04-10T01:00:30.029Z,7.83
2023-04-10T01:02:56.817Z,7.86
2023-04-10T01:05:27.061Z,8.01
2023-04-10T01:08:02.513Z,8.41
2023-04-10T01:10:38.750Z,8.40
2023-04-10T01:13:40.446Z,7.79
2023-04-10T01:16:18.810Z,8.30
2023-04-10T01:18:53.384Z,8.03
2023-04-10T01:21:22.914Z,8.29
2023-04-10T01:24:17.012Z,8.90
2023-04-10T01:27:15.484Z,9.03
2023-04-10T01:29:47.924Z,8.52
2023-04-10T01:32:20.241Z,8.74
2023-04-10T01:34:52.983Z,8.48
2023-04-10T01:37:30.129Z,8.94
2023-04-10T01:40:03.073Z,8.76
2023-04-10T01:42:34.982Z,8.52
2023-04-10T01:45:04.899Z,8.58
2023-04-10T01:47:32.071Z,8.51
2023-04-10T01:50:01.230Z,8.58
2023-04-10T01:52:31.175Z,7.75
2023-04-10T01:54:58.856Z,8.09
2023-04-10T01:57:26.017Z,8.28
2023-04-10T01:59:52.752Z,8.33
2023-04-10T02:02:19.680Z,8.45
2023-04-10T02:04:46.613Z,8.20
2023-04-10T02:07:28.424Z,8.11
2023-04-10T02:10:06.876Z,8.42
2023-04-10T02:12:46.544Z,8.24
2023-04-10T02:15:16.849Z,8.51
2023-04-10T02:17:45.018Z,8.77
2023-04-10T02:20:13.763Z,8.42
2023-04-10T02:22:42.778Z,8.06
2023-04-10T02:25:10.150Z,7.70
2023-04-10T02:27:37.888Z,7.88
2023-04-10T02:30:05.421Z,8.28
2023-04-10T02:32:32.833Z,8.44
2023-04-10T02:35:00.890Z,8.54
2023-04-10T02:37:27.642Z,8.30
2023-04-10T02:39:55.500Z,7.77
2023-04-10T02:42:22.498Z,7.56
2023-04-10T02:44:49.233Z,7.74
2023-04-10T02:47:15.916Z,7.30
2023-04-10T02:49:42.696Z,7.26
2023-04-10T02:52:09.635Z,7.56
2023-04-10T02:54:36.615Z,7.87
2023-04-10T02:57:03.308Z,8.45
2023-04-10T02:59:30.016Z,8.49
2023-04-10T03:01:56.733Z,7.75
2023-04-10T03:04:23.574Z,8.18
2023-04-10T03:06:50.255Z,7.90
2023-04-10T03:09:16.889Z,7.96
2023-04-10T03:11:43.508Z,7.46
2023-04-10T03:14:10.123Z,7.15
2023-04-10T03:16:37.345Z,7.03
2023-04-10T03:19:04.386Z,7.29
2023-04-10T03:21:31.175Z,7.69
2023-04-10T03:23:57.816Z,7.82
2023-04-10T03:26:24.502Z,7.86
2023-04-10T03:28:51.241Z,7.46
2023-04-10T03:31:18.068Z,8.10
2023-04-10T03:33:45.029Z,7.62
2023-04-10T03:36:11.811Z,7.50
2023-04-10T03:38:38.499Z,7.81
2023-04-10T03:41:07.646Z,8.06
2023-04-10T03:43:34.918Z,8.09
2023-04-10T03:46:01.587Z,7.89
2023-04-10T03:48:28.611Z,7.48
2023-04-10T03:50:55.371Z,7.37
2023-04-10T03:53:22.080Z,7.69
2023-04-10T03:55:48.828Z,7.95
2023-04-10T03:58:18.679Z,8.02
2023-04-10T04:00:46.377Z,7.90
2023-04-10T04:03:14.932Z,8.18
2023-04-10T04:05:41.891Z,7.70
2023-04-10T04:08:08.504Z,7.88
2023-04-10T04:10:35.149Z,7.98
2023-04-10T04:13:01.879Z,8.11
2023-04-10T04:15:28.654Z,8.10
2023-04-10T04:17:55.324Z,7.72
2023-04-10T04:20:22.312Z,7.76
2023-04-10T04:22:48.916Z,7.22
2023-04-10T04:25:15.518Z,7.23
2023-04-10T04:27:42.150Z,7.51
2023-04-10T04:30:09.256Z,7.72
2023-04-10T04:32:35.920Z,7.87
2023-04-10T04:35:02.754Z,8.12
2023-04-10T04:37:29.786Z,8.19
2023-04-10T04:39:57.812Z,8.24
2023-04-10T04:42:24.525Z,8.17
2023-04-10T04:44:51.130Z,7.48
2023-04-10T04:47:17.745Z,7.69
2023-04-10T04:49:44.392Z,7.53
2023-04-10T04:52:11.023Z,7.84
2023-04-10T04:54:37.651Z,7.23
2023-04-10T04:57:04.274Z,6.66
2023-04-10T04:59:30.902Z,7.16
2023-04-10T05:01:58.144Z,7.41
2023-04-10T05:04:25.117Z,7.47
2023-04-10T05:06:52.244Z,7.39
2023-04-10T05:09:18.939Z,7.08
2023-04-10T05:11:45.549Z,6.76
2023-04-10T05:14:12.175Z,6.93
2023-04-10T05:16:38.825Z,7.01
2023-04-10T05:19:05.460Z,7.45
2023-04-10T05:21:32.104Z,7.82
2023-04-10T05:23:58.735Z,7.96
2023-04-10T05:26:25.356Z,7.80
2023-04-10T05:28:52.235Z,7.53
2023-04-10T05:31:18.973Z,6.98
2023-04-10T05:33:45.634Z,7.75
2023-04-10T05:36:13.334Z,8.33
2023-04-10T05:38:40.175Z,8.36
2023-04-10T05:41:07.008Z,7.98
2023-04-10T05:43:33.696Z,8.48
2023-04-10T05:46:00.474Z,8.73
2023-04-10T05:48:27.220Z,8.85
2023-04-10T05:50:53.935Z,8.81
2023-04-10T05:53:20.967Z,9.18
2023-04-10T05:55:51.003Z,9.11
2023-04-10T05:58:17.649Z,9.29
2023-04-10T06:00:44.235Z,9.35
2023-04-10T06:03:10.994Z,9.54
2023-04-10T06:05:37.768Z,9.52
2023-04-10T06:08:04.523Z,9.65
2023-04-10T06:10:31.278Z,9.52
2023-04-10T06:12:57.885Z,9.73
2023-04-10T06:15:24.573Z,9.89
2023-04-10T06:17:51.230Z,9.75
2023-04-10T06:20:17.874Z,9.87
2023-04-10T06:22:44.535Z,10.12
2023-04-10T06:25:11.151Z,9.44
2023-04-10T06:27:37.789Z,10.01
2023-04-10T06:30:05.100Z,10.28
2023-04-10T06:32:31.931Z,10.39
2023-04-10T06:34:58.536Z,10.05
2023-04-10T06:37:29.781Z,10.36
2023-04-10T06:40:08.811Z,10.18
2023-04-10T06:42:36.098Z,10.34
2023-04-10T06:45:03.981Z,10.41
2023-04-10T06:47:30.775Z,9.92
2023-04-10T06:49:57.568Z,9.78
2023-04-10T06:52:24.204Z,9.74
2023-04-10T06:54:50.868Z,9.84
2023-04-10T06:57:17.928Z,10.28
2023-04-10T06:59:45.342Z,10.45
2023-04-10T07:02:12.083Z,11.01
2023-04-10T07:04:38.801Z,10.78
2023-04-10T07:07:05.563Z,10.61
2023-04-10T07:09:32.247Z,10.68
2023-04-10T07:11:58.913Z,12.49
2023-04-10T07:14:25.529Z,13.86
2023-04-10T07:16:52.321Z,14.36
2023-04-10T07:19:19.034Z,14.61
2023-04-10T07:21:45.769Z,15.42
2023-04-10T07:24:12.413Z,15.91
2023-04-10T07:26:39.064Z,15.92
2023-04-10T07:29:07.376Z,14.50
2023-04-10T07:31:34.087Z,15.22
2023-04-10T07:34:01.670Z,15.86
2023-04-10T07:36:28.305Z,16.44
2023-04-10T07:38:57.667Z,16.75
2023-04-10T07:41:24.368Z,17.10
2023-04-10T07:43:51.106Z,16.38
2023-04-10T07:46:18.014Z,16.74
2023-04-10T07:48:44.708Z,16.54
2023-04-10T07:51:11.329Z,16.53
2023-04-10T07:53:38.157Z,16.29
2023-04-10T07:56:05.522Z,16.60
2023-04-10T07:58:32.166Z,16.59
2023-04-10T08:00:59.164Z,17.25
2023-04-10T08:03:26.529Z,16.22
2023-04-10T08:05:53.270Z,16.71
2023-04-10T08:08:19.937Z,16.56
2023-04-10T08:10:46.571Z,16.72
2023-04-10T08:13:13.193Z,16.38
2023-04-10T08:15:40.008Z,16.46
2023-04-10T08:18:06.786Z,16.95
2023-04-10T08:20:33.468Z,17.23
2023-04-10T08:23:09.225Z,16.79
2023-04-10T08:25:46.212Z,17.35
2023-04-10T08:28:12.885Z,17.20
2023-04-10T08:30:41.120Z,16.97
2023-04-10T08:33:08.036Z,16.97
2023-04-10T08:35:34.662Z,16.58
2023-04-10T08:38:13.230Z,16.49
2023-04-10T08:40:41.517Z,16.52
2023-04-10T08:43:08.192Z,16.42
2023-04-10T08:45:34.813Z,16.80
2023-04-10T08:48:06.118Z,16.18
2023-04-10T08:50:35.071Z,16.14
2023-04-10T08:53:11.513Z,16.43
2023-04-10T08:55:40.186Z,15.99
2023-04-10T08:58:07.736Z,15.49
2023-04-10T09:00:36.277Z,15.56
2023-04-10T09:03:03.378Z,15.95
2023-04-10T09:05:31.335Z,15.47
2023-04-10T09:07:59.185Z,15.69
2023-04-10T09:10:25.795Z,16.07
2023-04-10T09:12:52.536Z,15.64
2023-04-10T09:15:19.179Z,15.32
2023-04-10T09:18:03.320Z,14.81
2023-04-10T09:20:32.080Z,14.51
2023-04-10T09:22:58.797Z,14.24
2023-04-10T09:25:36.786Z,13.94
2023-04-10T09:28:09.000Z,13.53
2023-04-10T09:30:40.487Z,13.18
2023-04-10T09:33:27.901Z,12.51
2023-04-10T09:35:58.073Z,12.48
2023-04-10T09:38:24.707Z,12.46
2023-04-10T09:40:52.967Z,13.03
2023-04-10T09:43:26.424Z,13.23
2023-04-10T09:45:55.876Z,13.30
2023-04-10T09:48:24.756Z,12.73
2023-04-10T09:50:51.443Z,13.07
2023-04-10T09:53:20.017Z,13.35
2023-04-10T09:55:49.086Z,13.22
2023-04-10T09:58:17.015Z,13.35
2023-04-10T10:00:45.913Z,13.50
2023-04-10T10:03:18.103Z,13.62
2023-04-10T10:05:47.956Z,13.85
2023-04-10T10:08:15.959Z,13.98
2023-04-10T10:10:58.679Z,14.04
2023-04-10T10:13:49.622Z,14.23
2023-04-10T10:16:28.636Z,14.19
2023-04-10T10:19:04.909Z,14.59
2023-04-10T10:21:33.106Z,14.85
2023-04-10T10:24:01.489Z,15.33
2023-04-10T10:26:30.467Z,15.16
2023-04-10T10:29:03.194Z,14.90
2023-04-10T10:31:33.527Z,14.64
2023-04-10T10:34:01.766Z,15.36
2023-04-10T10:36:28.381Z,14.99
2023-04-10T10:39:34.632Z,15.58
2023-04-10T10:42:30.698Z,15.33
2023-04-10T10:45:15.423Z,15.49
2023-04-10T10:47:47.364Z,15.92
2023-04-10T10:50:14.025Z,16.00
2023-04-10T10:52:43.246Z,15.72
2023-04-10T10:55:21.843Z,15.49
2023-04-10T10:57:49.943Z,15.97
2023-04-10T11:00:16.906Z,16.09
2023-04-10T11:02:44.036Z,16.14
2023-04-10T11:05:10.919Z,15.99
2023-04-10T11:08:00.354Z,15.65
2023-04-10T11:11:05.092Z,15.88
2023-04-10T11:13:36.841Z,15.85
2023-04-10T11:16:06.097Z,15.84
2023-04-10T11:18:44.816Z,16.06
2023-04-10T11:21:22.705Z,15.72
2023-04-10T11:23:52.489Z,15.83
2023-04-10T11:26:34.855Z,15.71
2023-04-10T11:29:18.986Z,14.82
2023-04-10T11:31:56.307Z,15.20
2023-04-10T11:34:23.886Z,15.03
2023-04-10T11:36:51.077Z,15.28
2023-04-10T11:39:18.511Z,15.58
2023-04-10T11:41:47.673Z,16.28
2023-04-10T11:44:34.819Z,16.32
2023-04-10T11:47:01.834Z,16.52
2023-04-10T11:49:32.624Z,16.51
2023-04-10T11:51:59.299Z,16.18
2023-04-10T11:54:28.312Z,16.48
2023-04-10T11:57:13.332Z,16.75
2023-04-10T11:59:40.006Z,16.64
2023-04-10T12:02:12.048Z,16.92
2023-04-10T12:04:39.092Z,16.98
2023-04-10T12:07:06.237Z,16.84
2023-04-10T12:09:33.054Z,17.33
2023-04-10T12:12:02.053Z,17.04
2023-04-10T12:14:32.287Z,16.80
2023-04-10T12:17:00.421Z,16.25
2023-04-10T12:19:28.025Z,16.64
2023-04-10T12:21:55.693Z,17.07
2023-04-10T12:24:50.884Z,16.71
2023-04-10T12:27:21.465Z,16.17
2023-04-10T12:29:50.942Z,16.53
2023-04-10T12:32:18.059Z,16.17
2023-04-10T12:34:55.426Z,16.28
2023-04-10T12:37:22.076Z,16.07
2023-04-10T12:39:51.923Z,16.35
2023-04-10T12:42:23.256Z,16.29
2023-04-10T12:44:54.289Z,16.56
2023-04-10T12:47:22.118Z,17.02
2023-04-10T12:50:09.978Z,17.27
2023-04-10T12:52:39.230Z,17.30
2023-04-10T12:55:19.183Z,17.07
2023-04-10T12:57:47.846Z,17.72
2023-04-10T13:00:17.392Z,17.94
2023-04-10T13:02:45.167Z,17.12
2023-04-10T13:05:12.925Z,17.50
2023-04-10T13:07:40.409Z,17.75
2023-04-10T13:10:08.234Z,17.92
2023-04-10T13:12:35.825Z,18.02
2023-04-10T13:15:02.599Z,18.25
2023-04-10T13:17:29.342Z,18.12
2023-04-10T13:19:57.205Z,17.41
2023-04-10T13:22:23.817Z,17.14
2023-04-10T13:24:50.493Z,17.22
2023-04-10T13:27:17.146Z,17.60
2023-04-10T13:29:43.839Z,16.98
2023-04-10T13:32:10.534Z,16.88
2023-04-10T13:34:37.624Z,16.87
2023-04-10T13:37:04.475Z,16.73
2023-04-10T13:39:31.571Z,16.83
2023-04-10T13:41:59.354Z,16.67
2023-04-10T13:44:26.221Z,16.49
2023-04-10T13:46:53.183Z,16.74
2023-04-10T13:49:20.861Z,16.92
2023-04-10T13:51:47.937Z,16.29
2023-04-10T13:54:14.603Z,16.71
2023-04-10T13:56:41.274Z,16.96
2023-04-10T13:59:08.053Z,17.51
2023-04-10T14:01:34.800Z,17.17
2023-04-10T14:04:01.562Z,17.35
2023-04-10T14:06:28.325Z,17.36
2023-04-10T14:08:55.118Z,17.60
2023-04-10T14:11:22.060Z,17.74
2023-04-10T14:13:49.023Z,17.78
2023-04-10T14:16:15.740Z,17.76
2023-04-10T14:18:42.403Z,17.51
2023-04-10T14:21:09.061Z,17.49
2023-04-10T14:23:35.919Z,17.40
2023-04-10T14:26:04.545Z,16.90
2023-04-10T14:28:31.217Z,17.41
2023-04-10T14:30:57.990Z,16.90
2023-04-10T14:33:24.641Z,17.34
2023-04-10T14:35:51.359Z,17.80
2023-04-10T14:38:18.029Z,17.63
2023-04-10T14:40:44.683Z,17.52
2023-04-10T14:43:11.354Z,18.00
2023-04-10T14:45:37.959Z,17.48
2023-04-10T14:48:04.728Z,17.95
2023-04-10T14:50:32.316Z,17.81
2023-04-10T14:52:59.893Z,18.08
2023-04-10T14:55:28.862Z,18.70
2023-04-10T14:57:58.231Z,18.71
2023-04-10T15:00:25.780Z,18.77
2023-04-10T15:02:52.625Z,18.71
2023-04-10T15:05:19.505Z,19.14
2023-04-10T15:07:46.247Z,19.22
2023-04-10T15:10:13.056Z,18.64
2023-04-10T15:12:39.786Z,18.28
2023-04-10T15:15:07.150Z,17.96
2023-04-10T15:17:33.888Z,17.39
2023-04-10T15:20:00.783Z,17.56
2023-04-10T15:22:27.500Z,17.23
2023-04-10T15:24:54.278Z,17.55
2023-04-10T15:27:21.325Z,17.51
2023-04-10T15:29:48.292Z,17.44
2023-04-10T15:32:15.155Z,17.32
2023-04-10T15:34:41.886Z,17.29
2023-04-10T15:37:08.573Z,17.54
2023-04-10T15:39:35.601Z,17.89
2023-04-10T15:42:03.200Z,17.36
2023-04-10T15:44:29.896Z,17.39
2023-04-10T15:46:56.745Z,17.76
2023-04-10T15:49:36.213Z,17.70
2023-04-10T15:52:06.265Z,17.86
2023-04-10T15:54:34.498Z,17.77
2023-04-10T15:57:01.309Z,17.21
2023-04-10T15:59:28.382Z,17.50
2023-04-10T16:01:55.133Z,17.99
2023-04-10T16:04:21.994Z,17.95
2023-04-10T16:06:48.723Z,17.33
2023-04-10T16:09:24.700Z,17.58
2023-04-10T16:11:53.328Z,17.22
2023-04-10T16:14:20.120Z,17.06
2023-04-10T16:16:46.833Z,17.32
2023-04-10T16:19:13.576Z,17.21
2023-04-10T16:21:40.237Z,17.73
2023-04-10T16:24:07.077Z,17.82
2023-04-10T16:26:33.681Z,17.83
2023-04-10T16:29:00.315Z,17.47
2023-04-10T16:31:26.967Z,17.52
2023-04-10T16:33:53.627Z,17.73
2023-04-10T16:36:20.248Z,17.92
2023-04-10T16:38:46.863Z,18.20
2023-04-10T16:41:13.460Z,17.83
2023-04-10T16:43:42.893Z,17.11
2023-04-10T16:46:09.605Z,17.23
2023-04-10T16:48:36.389Z,17.01
2023-04-10T16:51:03.130Z,16.99
2023-04-10T16:53:29.810Z,16.73
2023-04-10T16:55:57.297Z,16.35
2023-04-10T16:58:24.027Z,16.39
2023-04-10T17:00:50.722Z,16.37
2023-04-10T17:03:17.390Z,16.57
2023-04-10T17:05:44.183Z,16.70
2023-04-10T17:08:10.869Z,17.09
2023-04-10T17:10:37.540Z,17.09
2023-04-10T17:13:04.154Z,16.83
2023-04-10T17:15:30.863Z,16.43
2023-04-10T17:17:58.729Z,16.23
2023-04-10T17:20:25.337Z,16.35
2023-04-10T17:22:52.014Z,16.98
2023-04-10T17:25:19.018Z,16.81
2023-04-10T17:27:45.675Z,16.70
2023-04-10T17:30:13.350Z,17.03
2023-04-10T17:32:40.053Z,17.17
2023-04-10T17:35:07.031Z,17.44
2023-04-10T17:37:33.612Z,17.35
2023-04-10T17:40:01.218Z,17.64
2023-04-10T17:42:27.890Z,17.17
2023-04-10T17:44:54.477Z,16.70
2023-04-10T17:47:21.172Z,17.19
2023-04-10T17:49:47.840Z,16.86
2023-04-10T17:52:14.495Z,17.26
2023-04-10T17:54:41.146Z,17.25
2023-04-10T17:57:10.559Z,17.28
2023-04-10T17:59:37.175Z,17.35
2023-04-10T18:02:03.809Z,17.40
2023-04-10T18:04:30.515Z,17.39
2023-04-10T18:06:57.139Z,17.17
2023-04-10T18:09:23.857Z,16.66
2023-04-10T18:11:50.498Z,16.90
2023-04-10T18:14:17.145Z,16.32
2023-04-10T18:16:44.128Z,16.04
2023-04-10T18:19:10.812Z,16.06
2023-04-10T18:21:37.459Z,16.18
2023-04-10T18:24:04.539Z,16.38
2023-04-10T18:26:31.465Z,15.99
2023-04-10T18:28:58.088Z,16.26
2023-04-10T18:31:24.758Z,16.26
2023-04-10T18:34:03.741Z,16.45
2023-04-10T18:36:34.151Z,16.55
2023-04-10T18:39:00.890Z,16.42
2023-04-10T18:41:27.516Z,16.17
2023-04-10T18:44:04.305Z,15.94
2023-04-10T18:46:32.287Z,16.33
2023-04-10T18:48:59.532Z,16.13
2023-04-10T18:51:26.267Z,15.99
2023-04-10T18:53:53.153Z,15.65
2023-04-10T18:56:20.030Z,15.53
2023-04-10T18:58:48.300Z,15.77
2023-04-10T19:01:16.561Z,15.64
2023-04-10T19:03:43.632Z,15.32
2023-04-10T19:06:10.457Z,15.62
2023-04-10T19:08:37.253Z,15.56
2023-04-10T19:11:07.756Z,15.67
2023-04-10T19:13:34.596Z,16.16
2023-04-10T19:16:04.954Z,15.93
2023-04-10T19:18:31.645Z,16.01
2023-04-10T19:20:59.305Z,16.38
2023-04-10T19:23:26.611Z,16.34
2023-04-10T19:25:54.439Z,16.62
2023-04-10T19:28:23.525Z,16.24
2023-04-10T19:30:50.411Z,16.33
2023-04-10T19:33:17.136Z,15.61
2023-04-10T19:35:43.803Z,15.58
2023-04-10T19:38:10.418Z,15.53
2023-04-10T19:40:37.116Z,15.55
2023-04-10T19:43:04.009Z,15.41
2023-04-10T19:45:30.659Z,15.77
2023-04-10T19:47:57.517Z,15.83
2023-04-10T19:50:24.313Z,16.25
2023-04-10T19:52:51.589Z,16.29
2023-04-10T19:55:19.085Z,16.40
2023-04-10T19:57:47.688Z,15.81
2023-04-10T20:00:14.416Z,15.56
2023-04-10T20:02:41.301Z,15.63
2023-04-10T20:05:08.831Z,16.03
2023-04-10T20:07:35.503Z,15.93
2023-04-10T20:10:02.611Z,16.14
2023-04-10T20:12:30.198Z,15.64
2023-04-10T20:14:59.680Z,15.88
2023-04-10T20:17:27.036Z,16.28
2023-04-10T20:19:53.781Z,16.66
2023-04-10T20:25:05.284Z,16.77
2023-04-10T20:27:32.024Z,16.80
2023-04-10T20:29:58.618Z,16.32
2023-04-10T20:32:25.316Z,16.44
2023-04-10T20:34:52.042Z,16.32
2023-04-10T20:37:18.654Z,16.40
2023-04-10T20:39:45.325Z,16.79
2023-04-10T20:42:11.921Z,16.25
2023-04-10T20:44:38.536Z,16.75
2023-04-10T20:47:06.152Z,16.54
2023-04-10T20:49:32.903Z,16.66
2023-04-10T20:51:59.557Z,16.89
2023-04-10T20:54:26.184Z,16.98
2023-04-10T20:56:52.801Z,16.84
2023-04-10T20:59:19.430Z,17.25
2023-04-10T21:01:46.104Z,17.12
2023-04-10T21:04:12.820Z,16.89
2023-04-10T21:06:39.448Z,16.72
2023-04-10T21:09:06.067Z,16.70
2023-04-10T21:11:32.749Z,16.74
2023-04-10T21:13:59.369Z,16.88
2023-04-10T21:16:26.058Z,16.84
2023-04-10T21:18:52.922Z,16.69
2023-04-10T21:21:19.690Z,17.01
2023-04-10T21:23:46.325Z,16.32
2023-04-10T21:26:14.128Z,15.72
2023-04-10T21:28:40.760Z,16.31
2023-04-10T21:31:07.398Z,16.65
2023-04-10T21:33:33.997Z,16.81
2023-04-10T21:36:00.939Z,16.66
2023-04-10T21:38:27.669Z,15.70
2023-04-10T21:40:54.880Z,15.64
2023-04-10T21:43:22.187Z,16.23
2023-04-10T21:45:49.190Z,16.07
2023-04-10T21:48:15.980Z,15.55
2023-04-10T21:50:42.735Z,16.28
2023-04-10T21:53:09.329Z,16.44
2023-04-10T21:55:35.950Z,15.58
2023-04-10T21:58:02.893Z,15.26
2023-04-10T22:00:29.701Z,15.76
2023-04-10T22:02:56.525Z,15.97
2023-04-10T22:05:23.606Z,15.34
2023-04-10T22:07:50.432Z,15.94
2023-04-10T22:10:17.080Z,15.39
2023-04-10T22:12:44.687Z,16.02
2023-04-10T22:15:14.950Z,16.39
2023-04-10T22:17:41.604Z,16.46
2023-04-10T22:20:08.550Z,16.63
2023-04-10T22:22:35.176Z,16.67
2023-04-10T22:25:01.798Z,16.89
2023-04-10T22:27:28.429Z,16.85
2023-04-10T22:30:03.132Z,16.48
2023-04-10T22:32:30.898Z,15.89
2023-04-10T22:34:59.165Z,16.06
2023-04-10T22:37:26.367Z,16.41
2023-04-10T22:39:53.116Z,16.54
2023-04-10T22:42:19.757Z,16.47
2023-04-10T22:44:46.372Z,16.80
2023-04-10T22:47:12.985Z,16.59
2023-04-10T22:49:39.646Z,16.97
2023-04-10T22:52:07.242Z,17.04
2023-04-10T22:54:33.894Z,17.02
2023-04-10T22:57:00.556Z,16.75
2023-04-10T22:59:27.160Z,16.50
2023-04-10T23:01:53.834Z,16.46
2023-04-10T23:04:20.601Z,16.28
2023-04-10T23:06:47.428Z,16.10
2023-04-10T23:09:14.044Z,15.68
2023-04-10T23:11:40.630Z,16.13
2023-04-10T23:14:07.293Z,15.87
2023-04-10T23:16:34.207Z,15.26
2023-04-10T23:19:00.914Z,15.42
2023-04-10T23:21:27.681Z,15.56
2023-04-10T23:23:54.389Z,16.05
2023-04-10T23:26:21.133Z,15.86
2023-04-10T23:28:48.156Z,16.00
2023-04-10T23:31:15.274Z,15.76
2023-04-10T23:33:42.056Z,15.96
2023-04-10T23:36:09.006Z,15.49
2023-04-10T23:38:35.648Z,15.65
2023-04-10T23:41:02.344Z,15.36
2023-04-10T23:43:29.003Z,15.06
2023-04-10T23:45:55.691Z,15.32
2023-04-10T23:48:22.344Z,14.86
2023-04-10T23:50:50.405Z,14.57
2023-04-10T23:53:17.532Z,14.66
2023-04-10T23:55:44.281Z,14.64
2023-04-10T23:58:11.155Z,14.70
